EGNXGCRR

Guest
Details From EGNX - Nottingham East Midlands
To GCRR - Lanzarote
Flight Number -
Tags Generated
Created
Modified
Stats Distance 1,535 nm / 2,842 km
Max Altitude 0 ft / 0 m
Waypoints 5
Social Downloads 1
Likes 0
Share VATSIM

Download

Looking for another format? Having issues loading an existing format? Contact us
Advertisement - Login to hide

Notes

Generated

Route

EGNX SALCO LOMDA LZR GCRR

ID Type Via Altitude Latitude Longitude Leg Dist Tot Dist Heading (true) Name
O EGNX APT - 0 ft / 0 m 52.83061˚ -1.34957˚ - 0 nm - -
SALCO FIX - 0 ft / 0 m 49.73722˚ -3.52944˚ 203 nm 203 nm 205° / 203° -
LOMDA FIX - 0 ft / 0 m 42.85280˚ -7.29603˚ 441 nm 644 nm 202° / 199° -
LZR VOR - 0 ft / 0 m 29.16600˚ -13.51073˚ 875 nm 1519 nm 202° / 198° LANZAROTE VOR-DME
O GCRR APT - 0 ft / 0 m 28.93584˚ -13.61080˚ 14 nm 1534 nm 201° / 201° -

Altitude Profile

Advertisement - Login to hide

Weather


0- 5 10 15 20 25 30 35+ Temperature / ° C

Clouds and Precipitation
Forecast for 2017-12-16 06:00 UTC. Updated 34 minutes ago

Ground ~20,000 ft ~40,000 ft Winds

EGNX

Details ICAO EGNX (EMA)
Name East Midlands
Region United Kingdom
Timezone Europe/London (UTC+0.0)
Stats Elevation 306 ft / 93 m (AMSL)
Location 52.830999° -1.328155°
Runways 1
Magnetic Variation 1.033° W

METAR

EGNX 160320Z 26008KT CAVOK M02/M03 Q1013

Decode

TAF

TAF EGNX 152304Z 1600/1624 30010KT CAVOK BECMG 1610/1612 BKN025 TEMPO 1611/1624 BKN012 PROB30 TEMPO 1611/1620 4000 RADZ BKN009 PROB30 1622/1624 0800 FG BKN000

Decode

Departure Runways

ID Width Length Bearing (true) Bearing (mag) Surface Threshold Offset Overrun Length
09 151 ft / 46 m 9,462 ft / 2,884 m 88.25° 89.28° Asphalt 587 ft / 179 m 92 ft / 28 m
27 151 ft / 46 m 9,462 ft / 2,884 m 268.29° 269.32° Asphalt 423 ft / 129 m 98 ft / 30 m

GCRR

Details ICAO GCRR (ACE)
Name Lanzarote
Region Canary Islands
Timezone Atlantic/Canary (UTC+0.0)
Stats Elevation 0 ft / 0 m (AMSL)
Location 28.945466° -13.605223°
Runways 1
Magnetic Variation 3.976° W

METAR

Not found

TAF

TAF GCRR 160200Z 1603/1703 34005KT 9999 FEW025 TX22/1614Z TN15/1606Z BECMG 1610/1612 03015KT BECMG 1619/1620 34005KT

Decode

Destination Runways

ID Width Length Bearing (true) Bearing (mag) Surface Threshold Offset Overrun Length
03 148 ft / 45 m 7,893 ft / 2,406 m 26.90° 30.88° Asphalt 197 ft / 60 m 197 ft / 60 m
21 148 ft / 45 m 7,893 ft / 2,406 m 206.91° 210.89° Asphalt 197 ft / 60 m 197 ft / 60 m

Approach Navaids

Runway Type Ident Frequency Range Bearing (true) Bearing (mag) Slope Elevation
03 Localiser IRR 109.10 MHz 18 nm / 33 km 26.90° 30.88° - 47 ft / 14 m (AMSL)
03 Glidescope IRR 109.10 MHz 10 nm / 19 km 26.90° 30.88° 3.00° 0 ft / 0 m (AMSL)
03 DME IRR 109.10 MHz 18 nm / 33 km - - - 36 ft / 11 m (AMSL)

Popular Alternatives